Time;durP1;ratioP1;P1;durP2;ratioP2;P2;SDS_P1;SDS_P2;PMS_P1;PMS_P2;Temp;Humidity;BMP_temperature;BMP_pressure;BME280_temperature;BME280_humidity;BME280_pressure;Samples;Min_cycle;Max_cycle;Signal;HPM_P1;HPM_P2
2022/03/20 00:01:04;;;;;;;6.05;3.83;;;3.80;99.90;;;;;;5039275;28;20485;-86
2022/03/20 00:03:31;;;;;;;12.20;4.45;;;3.70;99.90;;;;;;5055582;28;20162;-86
2022/03/20 00:05:57;;;;;;;8.65;3.97;;;4.10;99.90;;;;;;5004003;28;20045;-87
2022/03/20 00:08:24;;;;;;;6.72;4.00;;;3.60;99.90;;;;;;5069029;28;20422;-84
2022/03/20 00:10:54;;;;;;;7.18;4.07;;;3.60;99.90;;;;;;5065842;28;20497;-84
2022/03/20 00:13:22;;;;;;;6.07;4.45;;;3.60;99.90;;;;;;5040652;28;20036;-85
2022/03/20 00:15:52;;;;;;;6.18;3.65;;;3.60;99.90;;;;;;5020800;28;20121;-83
2022/03/20 00:18:21;;;;;;;6.88;3.67;;;3.60;99.90;;;;;;5037169;28;20051;-85
2022/03/20 00:20:49;;;;;;;6.78;4.20;;;3.60;99.90;;;;;;5059127;28;20397;-83
2022/03/20 00:23:16;;;;;;;10.68;4.35;;;3.50;99.90;;;;;;5061504;28;20808;-86
2022/03/20 00:25:44;;;;;;;5.03;3.92;;;3.60;99.90;;;;;;5013255;28;20037;-84
2022/03/20 00:28:11;;;;;;;7.35;3.90;;;4.90;99.90;;;;;;5005490;28;20443;-86
2022/03/20 00:30:38;;;;;;;6.03;3.65;;;3.60;99.90;;;;;;5039691;28;20102;-85
2022/03/20 00:33:04;;;;;;;5.38;3.63;;;3.50;99.90;;;;;;5056215;28;20037;-84
2022/03/20 00:35:32;;;;;;;7.63;4.57;;;3.80;99.90;;;;;;5039381;28;20162;-85
2022/03/20 00:37:58;;;;;;;6.97;3.97;;;3.40;99.90;;;;;;5024089;28;20587;-86
2022/03/20 00:40:27;;;;;;;7.78;4.47;;;3.40;99.90;;;;;;5056754;28;20040;-87
2022/03/20 00:42:53;;;;;;;9.15;4.47;;;3.40;99.90;;;;;;5050175;28;20383;-86
2022/03/20 00:45:19;;;;;;;7.13;4.15;;;3.30;99.90;;;;;;5041900;28;20055;-86
2022/03/20 00:47:45;;;;;;;5.60;3.70;;;3.30;99.90;;;;;;5039119;28;20044;-86
2022/03/20 00:50:11;;;;;;;7.57;4.00;;;3.30;99.90;;;;;;5024515;28;20097;-85
2022/03/20 00:52:37;;;;;;;10.63;4.68;;;4.60;99.90;;;;;;5039550;28;20563;-85
2022/03/20 00:55:03;;;;;;;5.88;3.83;;;4.20;99.90;;;;;;5040538;28;20037;-86
2022/03/20 00:57:29;;;;;;;7.63;3.88;;;3.20;99.90;;;;;;5057504;28;20528;-86
2022/03/20 00:59:55;;;;;;;;;;;3.50;99.90;;;;;;5039082;28;20033;-87
2022/03/20 01:02:21;;;;;;;10.63;4.53;;;3.10;99.90;;;;;;5024866;28;19959;-83
2022/03/20 01:04:47;;;;;;;;;;;3.70;99.90;;;;;;5034034;28;20041;-85
2022/03/20 01:07:13;;;;;;;6.50;3.72;;;3.50;99.90;;;;;;5065069;28;19916;-86
2022/03/20 01:09:39;;;;;;;8.38;4.00;;;3.00;99.90;;;;;;5040994;28;20108;-85
2022/03/20 01:12:09;;;;;;;6.80;4.53;;;3.40;99.90;;;;;;5040396;28;20056;-86
2022/03/20 01:14:35;;;;;;;10.05;4.55;;;3.00;99.90;;;;;;5017644;28;20424;-85
2022/03/20 01:17:01;;;;;;;;;;;3.80;99.90;;;;;;5045852;28;20044;-85
2022/03/20 01:19:27;;;;;;;7.85;4.07;;;3.20;99.90;;;;;;5072276;28;19920;-86
2022/03/20 01:21:53;;;;;;;;;;;3.30;99.90;;;;;;5039746;28;20076;-85
2022/03/20 01:24:20;;;;;;;7.37;3.80;;;3.10;99.90;;;;;;5029646;28;20019;-86
2022/03/20 01:26:45;;;;;;;5.15;3.72;;;2.80;99.90;;;;;;5044940;28;20041;-85
2022/03/20 01:29:11;;;;;;;10.40;4.15;;;2.80;99.90;;;;;;5038784;28;20097;-84
2022/03/20 01:31:38;;;;;;;4.47;3.20;;;2.80;99.90;;;;;;5039827;28;20049;-85
2022/03/20 01:34:04;;;;;;;7.07;4.38;;;3.60;99.90;;;;;;5039467;28;20036;-84
2022/03/20 01:36:31;;;;;;;5.78;3.78;;;2.80;99.90;;;;;;5040810;28;20106;-88
2022/03/20 01:38:57;;;;;;;7.78;4.25;;;2.70;99.90;;;;;;5039079;28;20489;-87
2022/03/20 01:41:23;;;;;;;;;;;2.70;99.90;;;;;;5038573;28;20041;-85
2022/03/20 01:43:51;;;;;;;5.95;3.63;;;2.70;99.90;;;;;;5042041;28;19920;-85
2022/03/20 01:46:17;;;;;;;7.18;4.28;;;2.70;99.90;;;;;;5063481;28;20052;-86
2022/03/20 01:48:43;;;;;;;6.57;4.15;;;2.70;99.90;;;;;;5039829;28;20167;-87
2022/03/20 01:51:13;;;;;;;7.57;4.68;;;3.30;99.90;;;;;;5023612;28;20051;-86
2022/03/20 01:53:39;;;;;;;8.77;5.10;;;2.70;99.90;;;;;;5074589;28;20180;-86
2022/03/20 01:56:06;;;;;;;7.32;4.60;;;2.70;99.90;;;;;;5058784;28;20366;-88
2022/03/20 01:58:34;;;;;;;8.10;4.20;;;2.60;99.90;;;;;;5075204;28;20071;-88
2022/03/20 02:01:02;;;;;;;9.20;4.70;;;2.60;99.90;;;;;;5089755;28;20084;-85
2022/03/20 02:03:31;;;;;;;8.98;4.88;;;3.10;99.90;;;;;;5061116;28;20040;-86
2022/03/20 02:06:00;;;;;;;8.52;5.22;;;2.50;99.90;;;;;;5029259;28;20040;-86
2022/03/20 02:08:27;;;;;;;9.18;5.30;;;2.80;99.90;;;;;;5010768;28;20045;-88
2022/03/20 02:10:54;;;;;;;7.63;5.38;;;2.80;99.90;;;;;;5041072;28;20386;-85
2022/03/20 02:13:24;;;;;;;12.82;5.07;;;2.80;99.90;;;;;;5039356;28;20055;-85
2022/03/20 02:15:51;;;;;;;7.93;4.70;;;2.40;99.90;;;;;;5061197;28;20059;-87
2022/03/20 02:18:18;;;;;;;6.55;4.80;;;2.40;99.90;;;;;;5059412;28;20168;-86
2022/03/20 02:20:47;;;;;;;8.68;4.88;;;2.60;99.90;;;;;;5059442;28;20504;-85
2022/03/20 02:23:14;;;;;;;9.77;5.53;;;3.30;99.90;;;;;;5042287;28;20044;-85
2022/03/20 02:25:51;;;;;;;8.48;5.22;;;2.70;99.90;;;;;;5026907;28;20098;-85
2022/03/20 02:28:17;;;;;;;15.02;5.38;;;2.40;99.90;;;;;;5027133;28;20070;-86
2022/03/20 02:30:46;;;;;;;8.05;4.85;;;3.10;99.90;;;;;;5054203;28;20032;-86
2022/03/20 02:33:13;;;;;;;9.10;5.65;;;2.60;99.90;;;;;;5025284;28;20080;-87
2022/03/20 02:35:40;;;;;;;6.10;4.75;;;2.40;99.90;;;;;;5038597;28;20044;-87
2022/03/20 02:38:13;;;;;;;12.32;5.10;;;3.50;99.90;;;;;;5042035;28;20125;-87
2022/03/20 02:40:38;;;;;;;13.18;6.45;;;2.90;99.90;;;;;;5028485;28;20036;-84
2022/03/20 02:43:07;;;;;;;10.00;5.30;;;2.20;99.90;;;;;;5037624;28;20121;-84
2022/03/20 02:45:34;;;;;;;11.40;5.03;;;2.50;99.90;;;;;;5042986;28;20139;-86
2022/03/20 02:48:04;;;;;;;10.57;5.80;;;2.20;99.90;;;;;;5059114;28;20045;-85
2022/03/20 02:50:35;;;;;;;14.30;6.57;;;2.20;99.90;;;;;;5059379;28;20067;-85
2022/03/20 02:53:02;;;;;;;9.35;5.85;;;2.20;99.90;;;;;;5042366;28;20041;-85
2022/03/20 02:55:30;;;;;;;15.93;5.88;;;3.30;99.90;;;;;;5058244;28;20040;-85
2022/03/20 02:57:59;;;;;;;12.95;6.75;;;3.70;99.90;;;;;;5061737;28;20084;-87
2022/03/20 03:00:28;;;;;;;12.50;6.57;;;2.70;99.90;;;;;;5079211;28;20044;-87
2022/03/20 03:02:56;;;;;;;7.15;5.60;;;3.00;99.90;;;;;;5053607;28;20106;-84
2022/03/20 03:05:27;;;;;;;14.30;6.03;;;2.70;99.90;;;;;;5050213;28;20103;-85
2022/03/20 03:10:56;;;;;;;21.02;7.25;;;2.10;99.90;;;;;;5057977;28;20041;-87
2022/03/20 03:13:41;;;;;;;12.65;6.55;;;2.10;99.90;;;;;;5061844;28;20051;-84
2022/03/20 03:16:08;;;;;;;12.15;5.93;;;2.10;99.90;;;;;;5075252;28;20044;-87
2022/03/20 03:18:35;;;;;;;9.75;5.90;;;3.30;99.90;;;;;;5041898;28;20040;-85
2022/03/20 03:21:01;;;;;;;12.93;6.72;;;2.10;99.90;;;;;;5041841;28;20052;-85
2022/03/20 03:23:27;;;;;;;13.45;7.43;;;2.30;99.90;;;;;;5024964;28;20048;-85
2022/03/20 03:25:53;;;;;;;16.05;6.72;;;2.60;99.90;;;;;;5058303;28;20511;-85
2022/03/20 03:28:19;;;;;;;15.73;6.93;;;2.00;99.90;;;;;;5041359;28;20496;-85
2022/03/20 03:30:48;;;;;;;14.60;7.70;;;3.50;99.90;;;;;;5074713;28;20062;-86
2022/03/20 03:33:17;;;;;;;14.23;7.88;;;2.00;99.90;;;;;;5057935;28;20094;-86
2022/03/20 03:35:43;;;;;;;11.40;6.40;;;2.10;99.90;;;;;;5041070;28;20048;-87
2022/03/20 03:38:16;;;;;;;8.55;6.03;;;2.00;99.90;;;;;;5041147;28;20051;-86
2022/03/20 03:40:45;;;;;;;12.02;6.57;;;2.00;99.90;;;;;;5031900;28;20080;-85
2022/03/20 03:43:15;;;;;;;12.80;7.60;;;1.90;99.90;;;;;;5028645;28;20556;-88
2022/03/20 03:45:41;;;;;;;14.73;6.20;;;3.20;99.90;;;;;;5020260;28;20657;-87
2022/03/20 03:48:08;;;;;;;18.45;7.18;;;2.40;99.90;;;;;;5035154;28;20136;-85
2022/03/20 03:50:36;;;;;;;13.73;6.63;;;3.10;99.90;;;;;;5034167;28;20045;-84
2022/03/20 03:53:03;;;;;;;10.02;6.47;;;1.90;99.90;;;;;;5022481;28;20072;-85
2022/03/20 03:55:30;;;;;;;14.20;7.22;;;2.90;99.90;;;;;;5043296;28;20045;-88
2022/03/20 03:57:56;;;;;;;16.80;8.30;;;1.80;99.90;;;;;;5032739;28;20051;-86
2022/03/20 04:00:22;;;;;;;10.25;7.18;;;1.80;99.90;;;;;;5003476;28;20037;-87
2022/03/20 04:02:48;;;;;;;11.77;7.85;;;2.20;99.90;;;;;;5018011;28;20074;-85
2022/03/20 04:05:17;;;;;;;;;;;1.80;99.90;;;;;;5018471;28;20064;-88
2022/03/20 04:07:45;;;;;;;8.93;7.28;;;1.80;99.90;;;;;;5019712;28;19967;-85
2022/03/20 04:10:11;;;;;;;16.92;7.93;;;2.30;99.90;;;;;;5030543;28;20041;-84
2022/03/20 04:12:40;;;;;;;10.13;6.25;;;1.80;99.90;;;;;;5022678;28;20382;-85
2022/03/20 04:15:08;;;;;;;11.38;6.97;;;2.10;99.90;;;;;;5035502;28;20053;-87
2022/03/20 04:17:33;;;;;;;14.20;7.28;;;1.70;99.90;;;;;;5029961;28;20049;-85
2022/03/20 04:20:00;;;;;;;12.57;7.40;;;1.70;99.90;;;;;;5030783;28;20384;-88
2022/03/20 04:22:27;;;;;;;13.48;7.85;;;1.70;99.90;;;;;;5031321;28;20513;-86
2022/03/20 04:24:54;;;;;;;12.50;7.15;;;2.10;99.90;;;;;;5019107;28;20109;-88
2022/03/20 04:27:20;;;;;;;16.00;7.70;;;1.60;99.90;;;;;;5033320;28;20390;-82
2022/03/20 04:29:46;;;;;;;10.77;7.45;;;2.70;99.90;;;;;;5003833;28;20033;-87
2022/03/20 04:32:13;;;;;;;13.18;6.93;;;1.50;99.90;;;;;;5019669;28;20071;-87
2022/03/20 04:34:41;;;;;;;16.83;7.95;;;3.20;99.90;;;;;;5039611;28;20048;-85
2022/03/20 04:37:09;;;;;;;13.38;7.03;;;2.20;99.90;;;;;;5017618;28;20504;-86
2022/03/20 04:39:36;;;;;;;12.73;7.95;;;1.50;99.90;;;;;;5017366;28;20049;-86
2022/03/20 04:42:02;;;;;;;13.20;7.82;;;1.50;99.90;;;;;;5034395;28;20457;-86
2022/03/20 04:44:28;;;;;;;18.73;7.93;;;1.40;99.90;;;;;;5009534;28;20053;-84
2022/03/20 04:46:55;;;;;;;14.63;6.97;;;1.40;99.90;;;;;;5024614;28;20549;-87
2022/03/20 05:00:23;;;;;;;14.40;7.55;;;1.50;99.90;;;;;;5019508;28;20034;-87
2022/03/20 05:02:49;;;;;;;;;;;1.40;99.90;;;;;;5004520;28;20480;-87
2022/03/20 05:05:18;;;;;;;14.23;8.40;;;1.30;99.90;;;;;;5017465;28;19971;-90
2022/03/20 05:07:44;;;;;;;14.13;7.68;;;1.30;99.90;;;;;;5000213;28;20079;-87
2022/03/20 05:15:40;;;;;;;15.43;8.00;;;1.30;99.90;;;;;;5032750;28;20124;-84
2022/03/20 05:18:07;;;;;;;12.52;8.05;;;1.30;99.90;;;;;;5020944;28;20041;-87
2022/03/20 05:20:33;;;;;;;15.98;8.10;;;1.30;99.90;;;;;;5015257;28;20374;-88
2022/03/20 05:22:59;;;;;;;11.63;8.70;;;2.40;99.90;;;;;;5015740;28;20510;-84
2022/03/20 05:25:28;;;;;;;13.05;8.40;;;1.30;99.90;;;;;;5015722;28;20553;-86
2022/03/20 05:27:55;;;;;;;12.45;7.35;;;1.30;99.90;;;;;;5025887;28;20442;-86
2022/03/20 05:30:20;;;;;;;15.50;8.30;;;1.20;99.90;;;;;;5032293;28;20038;-86
2022/03/20 05:32:48;;;;;;;12.85;8.18;;;2.50;99.90;;;;;;5015299;28;20036;-85
2022/03/20 05:35:19;;;;;;;18.88;9.82;;;1.20;99.90;;;;;;5040292;28;20098;-86
2022/03/20 05:37:46;;;;;;;17.75;7.97;;;1.20;99.90;;;;;;5024059;28;20343;-87
2022/03/20 05:40:14;;;;;;;15.07;8.10;;;1.20;99.90;;;;;;5007530;28;20033;-86
2022/03/20 05:42:40;;;;;;;17.67;9.82;;;1.60;99.90;;;;;;5014163;28;20057;-87
2022/03/20 05:45:06;;;;;;;15.40;9.63;;;1.20;99.90;;;;;;5030244;28;20429;-86
2022/03/20 05:47:32;;;;;;;14.95;9.13;;;1.30;99.90;;;;;;5000148;28;20054;-86
2022/03/20 05:50:02;;;;;;;14.98;8.50;;;2.10;99.90;;;;;;5012287;28;20466;-85
2022/03/20 05:52:31;;;;;;;14.95;8.05;;;1.60;99.90;;;;;;5020724;28;20049;-84
2022/03/20 05:54:58;;;;;;;16.02;8.73;;;1.90;99.90;;;;;;5056217;28;20037;-87
2022/03/20 06:00:16;;;;;;;15.68;9.10;;;1.70;99.90;;;;;;5053513;28;20048;-89
2022/03/20 06:02:45;;;;;;;13.63;8.50;;;1.40;99.90;;;;;;5000556;28;20069;-89
2022/03/20 06:05:12;;;;;;;20.95;8.90;;;1.40;99.90;;;;;;5020036;28;20119;-88
2022/03/20 06:07:43;;;;;;;17.17;8.77;;;2.60;99.90;;;;;;5024697;28;20042;-86
2022/03/20 06:10:10;;;;;;;17.90;9.07;;;1.40;99.90;;;;;;5019830;28;20128;-87
2022/03/20 06:12:36;;;;;;;14.40;8.50;;;1.70;99.90;;;;;;5020259;28;20038;-85
2022/03/20 06:15:02;;;;;;;13.30;8.88;;;1.00;99.90;;;;;;5004245;28;20057;-89
2022/03/20 06:17:28;;;;;;;16.20;9.00;;;1.50;99.90;;;;;;5032541;28;20037;-86
2022/03/20 06:19:54;;;;;;;17.80;10.25;;;2.50;99.90;;;;;;4997755;28;20440;-88
2022/03/20 06:22:19;;;;;;;15.13;8.68;;;2.60;99.90;;;;;;4990900;28;20098;-85
2022/03/20 06:24:45;;;;;;;17.85;9.32;;;2.80;99.90;;;;;;5003978;28;20041;-87
2022/03/20 06:27:11;;;;;;;17.70;10.13;;;2.10;99.90;;;;;;4989140;28;20128;-85
2022/03/20 06:29:36;;;;;;;17.00;10.00;;;2.00;99.90;;;;;;5018177;28;20443;-86
2022/03/20 06:32:02;;;;;;;14.70;9.00;;;1.60;99.90;;;;;;5019447;28;20494;-88
2022/03/20 06:34:28;;;;;;;18.08;9.80;;;1.70;99.90;;;;;;5051650;28;20061;-86
2022/03/20 06:36:57;;;;;;;13.02;8.98;;;2.30;99.90;;;;;;5000821;28;20052;-87
2022/03/20 06:39:23;;;;;;;17.80;9.38;;;3.00;99.90;;;;;;5019651;28;20049;-82
2022/03/20 06:41:49;;;;;;;18.88;10.10;;;2.80;99.90;;;;;;5019034;28;20046;-88
2022/03/20 06:44:18;;;;;;;18.13;8.77;;;2.60;99.90;;;;;;5019866;28;20088;-85
2022/03/20 06:46:44;;;;;;;14.43;8.85;;;1.90;99.90;;;;;;5026470;28;20060;-87
2022/03/20 06:49:10;;;;;;;18.35;8.75;;;3.20;99.90;;;;;;5001141;28;20128;-85
2022/03/20 06:51:36;;;;;;;;;;;3.10;99.90;;;;;;5003086;28;20042;-87
2022/03/20 06:54:02;;;;;;;15.38;9.13;;;2.10;99.90;;;;;;5019892;28;19925;-87
2022/03/20 06:56:33;;;;;;;15.25;8.93;;;2.10;99.90;;;;;;5019636;28;20503;-86
2022/03/20 06:58:59;;;;;;;18.40;8.98;;;3.40;99.90;;;;;;5027216;28;20097;-88
2022/03/20 07:01:26;;;;;;;15.63;9.48;;;2.90;99.90;;;;;;4999802;28;20045;-86
2022/03/20 07:03:53;;;;;;;15.38;9.15;;;3.60;99.90;;;;;;5008577;28;20710;-85
2022/03/20 07:06:26;;;;;;;15.88;9.05;;;2.30;99.90;;;;;;5021748;28;20049;-84
2022/03/20 07:08:55;;;;;;;18.30;10.00;;;3.20;99.90;;;;;;5010372;28;20045;-87
2022/03/20 07:11:21;;;;;;;13.30;8.63;;;3.00;99.90;;;;;;5036169;28;20329;-87
2022/03/20 07:13:49;;;;;;;14.02;9.45;;;2.40;99.90;;;;;;5024417;28;20068;-87
2022/03/20 07:16:16;;;;;;;14.45;9.10;;;2.50;99.90;;;;;;5004421;28;20034;-87
2022/03/20 07:18:45;;;;;;;14.85;8.77;;;2.60;99.90;;;;;;5026476;28;20084;-84
2022/03/20 07:21:16;;;;;;;17.48;9.50;;;2.60;99.90;;;;;;5013999;28;20193;-86
2022/03/20 07:23:42;;;;;;;14.43;9.10;;;2.70;99.90;;;;;;5015244;28;20077;-86
2022/03/20 07:31:37;;;;;;;11.57;8.15;;;2.90;99.90;;;;;;5001510;28;20033;-87
2022/03/20 07:34:03;;;;;;;18.67;9.57;;;3.10;99.90;;;;;;5002989;28;20480;-86
2022/03/20 07:36:29;;;;;;;17.08;8.88;;;2.90;99.90;;;;;;5020941;28;20056;-85
2022/03/20 07:38:55;;;;;;;17.17;9.60;;;3.20;99.90;;;;;;5005554;28;20601;-86
2022/03/20 07:41:21;;;;;;;17.30;9.25;;;3.60;99.90;;;;;;5022523;28;20271;-86
2022/03/20 07:43:49;;;;;;;11.95;9.38;;;3.10;99.90;;;;;;5043591;28;20099;-87
2022/03/20 07:46:14;;;;;;;14.95;9.15;;;3.50;99.90;;;;;;5021203;28;20068;-83
2022/03/20 07:48:41;;;;;;;15.90;9.65;;;3.30;99.90;;;;;;5021250;28;20126;-85
2022/03/20 07:51:06;;;;;;;;;;;3.40;99.90;;;;;;5038082;28;20060;-85
2022/03/20 07:53:32;;;;;;;14.60;9.35;;;3.50;99.90;;;;;;5037482;28;19923;-83
2022/03/20 07:55:58;;;;;;;14.27;9.77;;;4.80;99.90;;;;;;5037707;28;20056;-84
2022/03/20 07:58:24;;;;;;;14.57;9.35;;;3.60;99.90;;;;;;5044821;28;20056;-86
2022/03/20 08:00:50;;;;;;;;;;;3.70;99.90;;;;;;5025763;28;20123;-85
2022/03/20 08:03:17;;;;;;;15.40;9.45;;;4.00;99.90;;;;;;5022949;28;19947;-88
2022/03/20 08:05:44;;;;;;;16.58;9.23;;;3.90;99.90;;;;;;5006820;28;20399;-86
2022/03/20 08:08:14;;;;;;;21.02;10.60;;;4.00;99.90;;;;;;5019478;28;20044;-84
2022/03/20 08:10:41;;;;;;;23.70;10.48;;;4.10;99.90;;;;;;5031005;28;20494;-87
2022/03/20 08:13:09;;;;;;;17.88;10.55;;;4.20;99.90;;;;;;5014542;28;20493;-86
2022/03/20 08:15:36;;;;;;;15.85;9.90;;;4.30;99.90;;;;;;5021791;28;20390;-87
2022/03/20 08:18:04;;;;;;;18.83;9.27;;;4.40;99.90;;;;;;5020572;28;20064;-86
2022/03/20 08:20:31;;;;;;;19.40;9.60;;;4.40;99.90;;;;;;5038191;28;20091;-81
2022/03/20 08:22:56;;;;;;;17.02;9.02;;;4.50;99.90;;;;;;5016101;28;20445;-84
2022/03/20 08:25:22;;;;;;;17.10;9.45;;;4.50;99.90;;;;;;5027231;28;20040;-86
2022/03/20 08:27:49;;;;;;;14.40;9.10;;;4.60;99.90;;;;;;5033843;28;20092;-83
2022/03/20 08:30:17;;;;;;;16.52;9.80;;;4.60;99.90;;;;;;5031959;28;20116;-85
2022/03/20 08:32:49;;;;;;;13.80;8.90;;;4.70;99.90;;;;;;5020822;28;20159;-82
2022/03/20 08:35:16;;;;;;;14.25;9.18;;;4.90;99.90;;;;;;5048631;28;20029;-85
2022/03/20 08:37:43;;;;;;;12.77;9.35;;;5.10;99.90;;;;;;5021038;28;20079;-82
2022/03/20 08:40:17;;;;;;;20.67;10.65;;;4.90;99.90;;;;;;5033477;28;20056;-84
2022/03/20 08:42:48;;;;;;;14.82;9.23;;;5.00;99.90;;;;;;5046478;28;20061;-86
2022/03/20 08:45:15;;;;;;;19.88;9.13;;;5.00;99.90;;;;;;5045442;28;20045;-86
2022/03/20 08:47:42;;;;;;;16.83;10.48;;;5.10;99.90;;;;;;5064269;28;20132;-87
2022/03/20 08:50:09;;;;;;;17.67;9.88;;;5.10;99.90;;;;;;5038385;28;20487;-85
2022/03/20 08:52:34;;;;;;;14.63;9.07;;;5.20;99.90;;;;;;5036010;28;20043;-85
2022/03/20 08:55:09;;;;;;;20.30;10.50;;;5.10;99.90;;;;;;5036415;28;20032;-86
2022/03/20 08:57:40;;;;;;;20.48;10.77;;;5.10;99.90;;;;;;5018062;28;20064;-86
2022/03/20 09:00:11;;;;;;;23.30;10.85;;;6.40;99.90;;;;;;5055934;28;20186;-82
2022/03/20 09:02:37;;;;;;;19.10;10.23;;;5.30;99.90;;;;;;5037571;28;20052;-87
2022/03/20 09:05:06;;;;;;;;;;;6.30;99.90;;;;;;5036479;28;20514;-84
2022/03/20 09:07:32;;;;;;;19.10;11.05;;;5.60;99.90;;;;;;5054554;28;19984;-85
2022/03/20 09:09:58;;;;;;;18.85;11.10;;;5.60;99.90;;;;;;5034992;28;20051;-84
2022/03/20 09:12:26;;;;;;;16.10;10.52;;;5.70;99.90;;;;;;5059000;28;20431;-84
2022/03/20 09:14:57;;;;;;;22.67;11.15;;;5.80;99.90;;;;;;5017986;28;20093;-84
2022/03/20 09:20:08;;;;;;;19.38;11.65;;;6.10;99.90;;;;;;5039082;28;20482;-85
2022/03/20 09:22:34;;;;;;;16.80;10.93;;;6.20;99.90;;;;;;5035773;28;20045;-85
2022/03/20 09:25:00;;;;;;;;;;;6.30;99.90;;;;;;5037328;28;20048;-88
2022/03/20 09:27:25;;;;;;;20.85;11.00;;;6.30;99.90;;;;;;5036062;28;20282;-87
2022/03/20 09:29:51;;;;;;;18.70;11.52;;;6.40;99.90;;;;;;5036182;28;20076;-84
2022/03/20 09:32:18;;;;;;;16.13;10.32;;;6.50;99.90;;;;;;5020312;28;20043;-86
2022/03/20 09:34:50;;;;;;;19.85;11.25;;;6.60;99.90;;;;;;5018804;28;20087;-84
2022/03/20 09:37:15;;;;;;;21.45;12.35;;;6.60;99.90;;;;;;5035663;28;20033;-85
2022/03/20 09:39:41;;;;;;;19.35;11.23;;;6.80;99.90;;;;;;5052379;28;20044;-84
2022/03/20 09:42:07;;;;;;;19.40;11.00;;;6.70;99.90;;;;;;5035727;28;20048;-85
2022/03/20 09:44:34;;;;;;;;;;;6.70;99.90;;;;;;5020310;28;20045;-85
2022/03/20 09:47:01;;;;;;;21.08;12.23;;;6.80;99.90;;;;;;5035404;28;19964;-87
2022/03/20 09:49:28;;;;;;;21.10;11.68;;;6.90;99.90;;;;;;5019340;28;20076;-88
2022/03/20 09:51:55;;;;;;;22.20;12.23;;;7.00;99.90;;;;;;5028718;28;20048;-85
2022/03/20 09:54:21;;;;;;;19.65;12.32;;;7.10;99.90;;;;;;5035487;28;20036;-84
2022/03/20 09:56:51;;;;;;;20.75;12.65;;;7.20;99.90;;;;;;5035277;28;20375;-85
2022/03/20 09:59:17;;;;;;;16.58;11.05;;;7.30;99.90;;;;;;5032069;28;20037;-82
2022/03/20 10:01:43;;;;;;;21.13;11.15;;;7.40;99.90;;;;;;5037232;28;20041;-88
2022/03/20 10:04:15;;;;;;;19.50;11.23;;;7.50;99.90;;;;;;5002671;28;20532;-84
2022/03/20 10:06:42;;;;;;;21.58;11.98;;;7.60;99.90;;;;;;5051818;28;20094;-84
2022/03/20 10:09:13;;;;;;;21.58;13.15;;;7.70;99.90;;;;;;5035661;28;20044;-86
2022/03/20 10:11:52;;;;;;;21.88;12.45;;;7.80;99.90;;;;;;5052352;28;20037;-83
2022/03/20 10:14:22;;;;;;;17.98;11.85;;;7.80;99.90;;;;;;5040673;28;20107;-87
2022/03/20 10:17:09;;;;;;;27.15;14.05;;;7.90;99.90;;;;;;5035171;28;20120;-86
2022/03/20 10:19:35;;;;;;;19.50;12.20;;;7.90;99.90;;;;;;5057169;28;20482;-84
2022/03/20 10:22:09;;;;;;;19.60;12.30;;;8.00;99.90;;;;;;5035419;28;20056;-86
2022/03/20 10:24:40;;;;;;;26.95;13.05;;;8.00;99.90;;;;;;5029985;28;20037;-83
2022/03/20 10:27:26;;;;;;;19.25;12.07;;;8.10;99.90;;;;;;5046848;28;20041;-86
2022/03/20 10:29:58;;;;;;;21.45;12.98;;;8.20;99.90;;;;;;5015442;28;20394;-85
2022/03/20 10:32:24;;;;;;;23.50;12.93;;;8.30;99.90;;;;;;5053602;28;20079;-83
2022/03/20 10:34:56;;;;;;;;;;;8.40;99.90;;;;;;5037513;28;20094;-86
2022/03/20 10:37:43;;;;;;;22.00;12.50;;;8.40;99.90;;;;;;5040464;28;20255;-83
2022/03/20 10:40:10;;;;;;;22.35;12.15;;;8.60;99.90;;;;;;5058623;28;20049;-80
2022/03/20 10:42:36;;;;;;;23.20;14.23;;;8.70;99.90;;;;;;5025799;28;20556;-88
2022/03/20 10:45:06;;;;;;;26.50;13.23;;;8.80;99.90;;;;;;5023205;28;20044;-85
2022/03/20 10:47:33;;;;;;;23.42;13.13;;;8.80;99.90;;;;;;5030033;28;20063;-85
2022/03/20 10:50:07;;;;;;;22.13;12.30;;;8.80;99.90;;;;;;5032969;28;20064;-87
2022/03/20 10:52:36;;;;;;;21.58;12.60;;;8.90;99.90;;;;;;5046125;28;20079;-84
2022/03/20 10:55:07;;;;;;;22.38;12.68;;;8.90;99.70;;;;;;5024549;28;20041;-83
2022/03/20 10:57:34;;;;;;;22.08;13.32;;;9.00;99.50;;;;;;5020066;28;20049;-88
2022/03/20 11:00:10;;;;;;;22.85;13.48;;;9.10;98.30;;;;;;5037305;28;20041;-86
2022/03/20 11:02:39;;;;;;;24.33;13.48;;;9.20;99.70;;;;;;5035738;28;20111;-86
2022/03/20 11:05:11;;;;;;;22.48;12.50;;;9.30;99.90;;;;;;5024805;28;20049;-89
2022/03/20 11:07:37;;;;;;;25.90;15.85;;;9.50;99.70;;;;;;5032542;28;20114;-88
2022/03/20 11:10:09;;;;;;;21.55;13.73;;;9.60;98.80;;;;;;5004247;28;20041;-84
2022/03/20 11:12:36;;;;;;;23.35;13.77;;;9.60;97.10;;;;;;5020465;28;20064;-87
2022/03/20 11:15:07;;;;;;;19.85;12.88;;;9.60;97.90;;;;;;5003376;28;20124;-86
2022/03/20 11:17:45;;;;;;;22.00;14.05;;;9.70;97.70;;;;;;5041351;28;20125;-87
2022/03/20 11:20:13;;;;;;;27.70;13.98;;;9.80;96.40;;;;;;5038822;28;20100;-86
2022/03/20 11:22:48;;;;;;;22.48;13.32;;;9.80;96.70;;;;;;5024976;28;20130;-82
2022/03/20 11:25:22;;;;;;;23.55;13.05;;;9.90;96.20;;;;;;4967548;28;20125;-83
2022/03/20 11:27:59;;;;;;;22.90;13.95;;;10.00;96.40;;;;;;5006391;28;20080;-86
2022/03/20 11:30:31;;;;;;;21.65;13.13;;;10.10;96.70;;;;;;5019737;28;20057;-84
2022/03/20 11:33:00;;;;;;;21.95;13.25;;;10.20;95.90;;;;;;5034423;28;20594;-88
2022/03/20 11:35:30;;;;;;;23.13;13.88;;;10.30;95.50;;;;;;5035726;28;20042;-83
2022/03/20 11:38:17;;;;;;;21.70;14.15;;;9.70;95.30;;;;;;5038866;28;20041;-87
2022/03/20 11:41:19;;;;;;;25.48;13.88;;;10.30;93.60;;;;;;5019454;28;20045;-85
2022/03/20 11:44:11;;;;;;;24.50;12.88;;;10.30;93.20;;;;;;5048232;28;20079;-87
2022/03/20 11:46:37;;;;;;;22.50;13.02;;;10.50;93.20;;;;;;5054430;28;20116;-85
2022/03/20 11:49:16;;;;;;;25.23;14.50;;;10.60;94.30;;;;;;5037414;28;20056;-83
2022/03/20 11:52:02;;;;;;;23.85;14.20;;;10.70;93.00;;;;;;5057968;28;20598;-87
2022/03/20 11:54:32;;;;;;;26.65;13.65;;;10.80;92.80;;;;;;5049040;28;20082;-84
2022/03/20 11:57:00;;;;;;;24.25;13.35;;;10.90;92.80;;;;;;5041568;28;20434;-86
2022/03/20 11:59:45;;;;;;;23.33;13.18;;;10.90;93.00;;;;;;5053890;28;20090;-85
2022/03/20 12:02:17;;;;;;;24.63;13.80;;;10.80;90.70;;;;;;5037920;28;20048;-87
2022/03/20 12:05:02;;;;;;;24.05;13.55;;;10.70;92.70;;;;;;5054135;28;20052;-87
2022/03/20 12:07:59;;;;;;;21.27;12.82;;;10.70;91.70;;;;;;5057189;28;20044;-86
2022/03/20 12:10:43;;;;;;;26.27;13.38;;;10.60;88.80;;;;;;4997641;28;20049;-87
2022/03/20 12:13:38;;;;;;;21.63;13.05;;;10.70;86.90;;;;;;5034862;28;20049;-87
2022/03/20 12:16:03;;;;;;;24.73;13.73;;;10.90;86.30;;;;;;5037689;28;20094;-87
2022/03/20 12:19:05;;;;;;;25.10;13.32;;;10.80;90.20;;;;;;5024549;28;20037;-85
2022/03/20 12:21:55;;;;;;;21.08;13.00;;;11.00;90.40;;;;;;5018902;28;20040;-83
2022/03/20 12:24:45;;;;;;;22.80;14.73;;;11.20;88.60;;;;;;5049649;28;20138;-89
2022/03/20 12:29:49;;;;;;;21.90;14.38;;;11.50;84.50;;;;;;5061302;28;20128;-86
2022/03/20 12:32:17;;;;;;;19.73;13.63;;;11.50;85.70;;;;;;5039247;28;20359;-87
2022/03/20 12:34:44;;;;;;;26.10;14.75;;;11.40;85.00;;;;;;5054707;28;20076;-84
2022/03/20 12:37:29;;;;;;;24.15;14.02;;;11.50;79.10;;;;;;5030183;28;20426;-78
2022/03/20 12:40:10;;;;;;;32.35;14.50;;;11.80;79.70;;;;;;5035790;28;20072;-89
2022/03/20 12:42:39;;;;;;;24.70;15.07;;;12.20;81.10;;;;;;5036807;28;20083;-82
2022/03/20 12:45:07;;;;;;;20.58;13.10;;;12.50;80.60;;;;;;5026643;28;20045;-82
2022/03/20 12:47:34;;;;;;;24.98;13.68;;;12.80;78.10;;;;;;5039135;28;20041;-85
2022/03/20 12:50:02;;;;;;;;;;;12.90;81.20;;;;;;5053409;28;20036;-81
2022/03/20 12:52:29;;;;;;;21.52;13.43;;;13.20;79.00;;;;;;5037446;28;20048;-82
2022/03/20 12:54:57;;;;;;;25.23;15.13;;;13.40;81.80;;;;;;5059334;28;20435;-82
2022/03/20 12:57:44;;;;;;;24.83;14.57;;;13.70;81.30;;;;;;5044520;28;20063;-83
2022/03/20 13:00:18;;;;;;;24.23;14.23;;;13.80;76.20;;;;;;5036153;28;20044;-81
2022/03/20 13:02:57;;;;;;;25.25;14.95;;;13.90;77.40;;;;;;5033009;28;20047;-79
2022/03/20 13:05:24;;;;;;;24.52;15.77;;;13.90;72.70;;;;;;5041824;28;20040;-84
2022/03/20 13:07:49;;;;;;;22.33;15.13;;;13.80;74.80;;;;;;5017771;28;20067;-83
2022/03/20 13:10:16;;;;;;;22.80;15.25;;;13.60;72.20;;;;;;5037330;28;20481;-84
2022/03/20 13:12:58;;;;;;;27.35;16.67;;;14.10;71.00;;;;;;5071190;28;20088;-83
2022/03/20 13:15:25;;;;;;;21.30;14.35;;;13.40;66.80;;;;;;5008403;28;20048;-83
2022/03/20 13:17:54;;;;;;;20.92;14.20;;;13.30;70.90;;;;;;5019368;28;20053;-85
2022/03/20 13:20:29;;;;;;;20.77;14.45;;;13.30;70.20;;;;;;5035693;28;20041;-83
2022/03/20 13:22:56;;;;;;;23.48;14.88;;;13.30;70.70;;;;;;5030989;28;20051;-84
2022/03/20 13:25:25;;;;;;;23.02;15.77;;;13.00;69.60;;;;;;5055328;28;20452;-85
2022/03/20 13:27:53;;;;;;;25.65;14.60;;;12.70;68.40;;;;;;5045681;28;20073;-82
2022/03/20 13:30:21;;;;;;;23.58;14.27;;;12.40;69.50;;;;;;5049085;28;20041;-83